Porcupine Plain, Canada
Current Conditions -  °F | °C
As of 6:00 AM on Sunday 23 Nov 2014 (Local Time) from CYBU Reporting Station
Light Snow Light Snow  
Wind Chill: -17°   Ceiling: Unl
Heat Index:   Visibility: 7mi
Dew Point: -4°   Wind: 10mph
Humidity: 85%   Direction: 350°N
Pressure: 29.76"   Gusts: NA
Location:  52.6°N, 103.25°W
Report Text: CYBU 231200Z AUTO 35009KT 7SM -SN CLR M18/M20 A2976 RMK SLP112
Loading
Personal Weather Stations






























Interactive Weather Map New forecast layout! Learn more

10-Day Weather Forecast

Advertisements
Track Severe Weather on mobile